Time;durP1;ratioP1;P1;durP2;ratioP2;P2;SDS_P1;SDS_P2;PMS_P1;PMS_P2;Temp;Humidity;BMP_temperature;BMP_pressure;BME280_temperature;BME280_humidity;BME280_pressure;Samples;Min_cycle;Max_cycle;Signal;HPM_P1;HPM_P2
2021/10/07 00:00:39;;;;;;;;;;;14.50;60.60;;;;;;5039886;28;88079;-45
2021/10/07 00:03:05;;;;;;;;;;;14.50;60.70;;;;;;5039741;28;87830;-45
2021/10/07 00:05:31;;;;;;;;;;;14.50;60.70;;;;;;5039957;28;86496;-44
2021/10/07 00:07:56;;;;;;;;;;;14.50;60.60;;;;;;5038499;28;87191;-45
2021/10/07 00:10:22;;;;;;;;;;;14.50;60.60;;;;;;5038418;28;89941;-45
2021/10/07 00:12:47;;;;;;;;;;;14.50;60.70;;;;;;5039143;28;88090;-45
2021/10/07 00:15:13;;;;;;;;;;;14.50;60.70;;;;;;5040560;27;90310;-44
2021/10/07 00:17:39;;;;;;;;;;;14.50;60.70;;;;;;5045168;28;89955;-44
2021/10/07 00:20:06;;;;;;;;;;;14.50;60.70;;;;;;5040114;28;88135;-44
2021/10/07 00:22:31;;;;;;;;;;;14.50;60.70;;;;;;5041484;27;88851;-44
2021/10/07 00:24:57;;;;;;;;;;;14.50;60.70;;;;;;5038629;28;88493;-45
2021/10/07 00:27:23;;;;;;;;;;;14.50;60.70;;;;;;5039490;28;88967;-44
2021/10/07 00:29:51;;;;;;;;;;;14.50;60.70;;;;;;5040591;28;88870;-45
2021/10/07 00:32:20;;;;;;;;;;;14.50;60.70;;;;;;5042044;28;88814;-44
2021/10/07 00:37:24;;;;;;;;;;;14.40;60.80;;;;;;5042380;28;88990;-47
2021/10/07 00:39:50;;;;;;;;;;;14.40;60.70;;;;;;5046249;28;87126;-46
2021/10/07 00:42:16;;;;;;;;;;;14.40;60.80;;;;;;5042220;28;87448;-45
2021/10/07 00:44:44;;;;;;;;;;;14.40;60.80;;;;;;5042704;28;88517;-44
2021/10/07 00:47:10;;;;;;;;;;;14.40;60.90;;;;;;5040280;28;89057;-44
2021/10/07 00:49:39;;;;;;;;;;;14.40;60.80;;;;;;5039317;28;88702;-44
2021/10/07 00:52:08;;;;;;;;;;;14.40;60.80;;;;;;5039293;28;88739;-45
2021/10/07 00:54:34;;;;;;;;;;;14.40;60.80;;;;;;5040661;28;87595;-44
2021/10/07 00:57:02;;;;;;;;;;;14.40;60.90;;;;;;5040357;28;88625;-44
2021/10/07 00:59:28;;;;;;;;;;;14.40;60.80;;;;;;5038031;28;87196;-44
2021/10/07 01:01:53;;;;;;;;;;;14.30;60.80;;;;;;5041032;28;88097;-44
2021/10/07 01:04:19;;;;;;;;;;;14.40;60.90;;;;;;5040450;28;87174;-45
2021/10/07 01:06:44;;;;;;;;;;;14.40;60.90;;;;;;5041389;28;87136;-45
2021/10/07 01:09:10;;;;;;;;;;;14.30;60.90;;;;;;5042217;28;87302;-46
2021/10/07 01:11:36;;;;;;;;;;;14.30;61.00;;;;;;5040484;28;88138;-44
2021/10/07 01:14:01;;;;;;;;;;;14.30;60.90;;;;;;5037977;28;87523;-44
2021/10/07 01:16:27;;;;;;;;;;;14.30;61.00;;;;;;5038706;28;88261;-45
2021/10/07 01:18:53;;;;;;;;;;;14.30;61.10;;;;;;5039917;28;86371;-45
2021/10/07 01:21:19;;;;;;;;;;;14.30;61.10;;;;;;5039357;28;87397;-45
2021/10/07 01:23:46;;;;;;;;;;;14.30;61.00;;;;;;5042064;28;89620;-45
2021/10/07 01:26:13;;;;;;;;;;;14.30;60.90;;;;;;5037264;28;88953;-45
2021/10/07 01:28:43;;;;;;;;;;;14.30;61.00;;;;;;5037680;28;87581;-45
2021/10/07 01:31:09;;;;;;;;;;;14.30;61.00;;;;;;5040797;28;87215;-44
2021/10/07 01:33:34;;;;;;;;;;;14.30;60.90;;;;;;5041232;28;89047;-45
2021/10/07 01:36:00;;;;;;;;;;;14.30;61.00;;;;;;5041899;28;89241;-44
2021/10/07 01:38:26;;;;;;;;;;;14.20;61.00;;;;;;5040529;28;88532;-45
2021/10/07 01:40:52;;;;;;;;;;;14.20;61.10;;;;;;5038507;28;88111;-44
2021/10/07 01:43:17;;;;;;;;;;;14.20;61.10;;;;;;5038087;28;86889;-44
2021/10/07 01:45:46;;;;;;;;;;;14.20;61.00;;;;;;5041866;28;87170;-45
2021/10/07 01:48:12;;;;;;;;;;;14.20;61.00;;;;;;5040308;28;89691;-44
2021/10/07 01:50:37;;;;;;;;;;;14.20;61.00;;;;;;5036998;28;89414;-44
2021/10/07 01:53:03;;;;;;;;;;;14.20;61.00;;;;;;5038198;28;88641;-46
2021/10/07 01:55:28;;;;;;;;;;;14.20;61.10;;;;;;5039036;28;87500;-44
2021/10/07 01:57:54;;;;;;;;;;;14.10;61.10;;;;;;5040608;28;87207;-45
2021/10/07 02:00:20;;;;;;;;;;;14.10;61.00;;;;;;5041945;28;87527;-48
2021/10/07 02:02:45;;;;;;;;;;;14.10;61.10;;;;;;5040662;28;89757;-44
2021/10/07 02:05:11;;;;;;;;;;;14.10;61.10;;;;;;5040834;28;88814;-44
2021/10/07 02:07:37;;;;;;;;;;;14.10;61.10;;;;;;5037809;28;87066;-45
2021/10/07 02:10:05;;;;;;;;;;;14.10;61.10;;;;;;5038821;28;87150;-45
2021/10/07 02:12:31;;;;;;;;;;;14.10;61.10;;;;;;5041003;28;88614;-44
2021/10/07 02:14:56;;;;;;;;;;;14.10;61.10;;;;;;5040199;28;88621;-45
2021/10/07 02:17:22;;;;;;;;;;;14.10;61.10;;;;;;5041239;28;87124;-45
2021/10/07 02:19:47;;;;;;;;;;;14.10;61.10;;;;;;5041363;28;87199;-45
2021/10/07 02:22:13;;;;;;;;;;;14.10;61.10;;;;;;5039694;28;87968;-44
2021/10/07 02:24:38;;;;;;;;;;;14.10;61.00;;;;;;5036704;28;88098;-44
2021/10/07 02:27:04;;;;;;;;;;;14.10;61.00;;;;;;5039960;28;87598;-44
2021/10/07 02:29:30;;;;;;;;;;;14.10;61.00;;;;;;5036401;28;87182;-44
2021/10/07 02:31:55;;;;;;;;;;;14.00;61.20;;;;;;5037627;28;88612;-44
2021/10/07 02:34:21;;;;;;;;;;;14.10;61.10;;;;;;5038130;28;89098;-44
2021/10/07 02:36:46;;;;;;;;;;;14.00;61.00;;;;;;5039232;28;87175;-45
2021/10/07 02:39:12;;;;;;;;;;;14.10;61.10;;;;;;5039184;28;88143;-45
2021/10/07 02:41:37;;;;;;;;;;;14.00;61.00;;;;;;5040396;28;87681;-45
2021/10/07 02:44:03;;;;;;;;;;;14.00;61.00;;;;;;5039238;28;87946;-46
2021/10/07 02:46:29;;;;;;;;;;;14.00;61.10;;;;;;5038755;28;88097;-46
2021/10/07 02:48:55;;;;;;;;;;;14.00;61.00;;;;;;5041888;28;88628;-45
2021/10/07 02:51:20;;;;;;;;;;;14.00;61.00;;;;;;5036369;28;89476;-44
2021/10/07 02:53:46;;;;;;;;;;;14.00;61.00;;;;;;5037024;28;89619;-44
2021/10/07 02:56:11;;;;;;;;;;;14.10;61.00;;;;;;5039194;28;86397;-44
2021/10/07 02:58:37;;;;;;;;;;;14.00;61.00;;;;;;5039724;28;87151;-44
2021/10/07 03:01:02;;;;;;;;;;;14.00;61.10;;;;;;5038772;28;87924;-45
2021/10/07 03:03:28;;;;;;;;;;;14.00;61.00;;;;;;5037553;28;88133;-44
2021/10/07 03:05:54;;;;;;;;;;;14.00;61.10;;;;;;5037319;28;87801;-44
2021/10/07 03:08:23;;;;;;;;;;;13.90;61.00;;;;;;5037345;28;87639;-44
2021/10/07 03:10:49;;;;;;;;;;;13.90;61.00;;;;;;5041043;28;87188;-44
2021/10/07 03:13:15;;;;;;;;;;;13.90;60.90;;;;;;5037104;28;87119;-44
2021/10/07 03:15:40;;;;;;;;;;;13.90;61.10;;;;;;5036839;28;87205;-45
2021/10/07 03:18:06;;;;;;;;;;;13.90;61.10;;;;;;5038097;28;88029;-45
2021/10/07 03:20:31;;;;;;;;;;;13.90;61.10;;;;;;5037915;28;87497;-45
2021/10/07 03:22:57;;;;;;;;;;;13.90;61.10;;;;;;5037563;28;87170;-44
2021/10/07 03:25:22;;;;;;;;;;;13.90;61.10;;;;;;5038794;28;89346;-45
2021/10/07 03:27:48;;;;;;;;;;;13.90;61.00;;;;;;5039059;28;89657;-45
2021/10/07 03:30:13;;;;;;;;;;;13.90;61.00;;;;;;5038873;28;88131;-45
2021/10/07 03:32:39;;;;;;;;;;;13.90;61.00;;;;;;5038242;28;88677;-44
2021/10/07 03:35:05;;;;;;;;;;;13.90;61.00;;;;;;5035794;28;87144;-45
2021/10/07 03:37:30;;;;;;;;;;;13.90;61.00;;;;;;5035975;28;90013;-45
2021/10/07 03:39:56;;;;;;;;;;;13.90;61.00;;;;;;5036006;28;88836;-44
2021/10/07 03:42:21;;;;;;;;;;;13.90;61.00;;;;;;5037572;28;87179;-45
2021/10/07 03:44:47;;;;;;;;;;;13.90;61.00;;;;;;5038671;28;87718;-44
2021/10/07 03:47:12;;;;;;;;;;;13.90;61.00;;;;;;5038262;28;88362;-45
2021/10/07 03:49:38;;;;;;;;;;;13.80;60.90;;;;;;5042040;27;87152;-46
2021/10/07 03:52:04;;;;;;;;;;;13.80;60.90;;;;;;5043005;28;88113;-44
2021/10/07 03:54:29;;;;;;;;;;;13.80;61.10;;;;;;5045739;28;88224;-44
2021/10/07 03:56:55;;;;;;;;;;;13.80;61.10;;;;;;5042891;28;88037;-44
2021/10/07 03:59:20;;;;;;;;;;;13.80;61.10;;;;;;5043198;28;88678;-44
2021/10/07 04:01:46;;;;;;;;;;;13.80;61.00;;;;;;5040242;28;88744;-45
2021/10/07 04:04:11;;;;;;;;;;;13.80;61.10;;;;;;5039712;28;87206;-44
2021/10/07 04:06:37;;;;;;;;;;;13.70;61.00;;;;;;5040517;28;87653;-44
2021/10/07 04:09:02;;;;;;;;;;;13.80;61.00;;;;;;5041081;28;86459;-45
2021/10/07 04:11:28;;;;;;;;;;;13.70;61.00;;;;;;5040446;28;88658;-44
2021/10/07 04:13:53;;;;;;;;;;;13.70;61.10;;;;;;5044343;28;87695;-45
2021/10/07 04:16:19;;;;;;;;;;;13.70;61.10;;;;;;5042461;28;88076;-45
2021/10/07 04:18:44;;;;;;;;;;;13.70;61.10;;;;;;5041735;28;89431;-45
2021/10/07 04:21:11;;;;;;;;;;;13.70;61.10;;;;;;5042521;28;88754;-44
2021/10/07 04:23:37;;;;;;;;;;;13.70;61.00;;;;;;5043441;28;87399;-44
2021/10/07 04:26:02;;;;;;;;;;;13.70;61.10;;;;;;5039935;28;89372;-44
2021/10/07 04:28:28;;;;;;;;;;;13.70;61.20;;;;;;5038876;28;87169;-44
2021/10/07 04:30:53;;;;;;;;;;;13.60;61.10;;;;;;5040225;28;88075;-44
2021/10/07 04:33:19;;;;;;;;;;;13.60;61.10;;;;;;5041658;28;86958;-45
2021/10/07 04:35:44;;;;;;;;;;;13.70;61.10;;;;;;5045684;28;87112;-45
2021/10/07 04:38:10;;;;;;;;;;;13.70;61.10;;;;;;5042788;28;89323;-46
2021/10/07 04:40:36;;;;;;;;;;;13.70;61.10;;;;;;5041249;28;88804;-44
2021/10/07 04:43:02;;;;;;;;;;;13.70;61.10;;;;;;5039687;28;90483;-44
2021/10/07 04:45:27;;;;;;;;;;;13.60;61.10;;;;;;5037968;28;87613;-44
2021/10/07 04:47:53;;;;;;;;;;;13.70;61.10;;;;;;5039478;28;87198;-44
2021/10/07 04:50:18;;;;;;;;;;;13.60;61.00;;;;;;5040810;28;87190;-45
2021/10/07 04:52:44;;;;;;;;;;;13.60;61.00;;;;;;5039978;28;88023;-44
2021/10/07 04:55:09;;;;;;;;;;;13.70;61.10;;;;;;5040238;28;87205;-44
2021/10/07 04:57:35;;;;;;;;;;;13.60;61.00;;;;;;5043227;28;86857;-44
2021/10/07 05:00:01;;;;;;;;;;;13.60;61.00;;;;;;5038425;27;87153;-44
2021/10/07 05:02:26;;;;;;;;;;;13.60;61.10;;;;;;5038083;28;87908;-45
2021/10/07 05:04:52;;;;;;;;;;;13.60;61.10;;;;;;5038309;28;90653;-45
2021/10/07 05:07:17;;;;;;;;;;;13.60;61.10;;;;;;5040673;28;87160;-46
2021/10/07 05:09:43;;;;;;;;;;;13.60;61.10;;;;;;5041927;28;87525;-45
2021/10/07 05:12:08;;;;;;;;;;;13.60;61.10;;;;;;5042007;28;87575;-44
2021/10/07 05:14:34;;;;;;;;;;;13.60;61.00;;;;;;5042580;28;87166;-45
2021/10/07 05:17:00;;;;;;;;;;;13.60;61.00;;;;;;5042142;28;88707;-44
2021/10/07 05:19:25;;;;;;;;;;;13.60;60.90;;;;;;5041822;28;89220;-44
2021/10/07 05:21:51;;;;;;;;;;;13.60;60.90;;;;;;5038749;28;87669;-44
2021/10/07 05:24:16;;;;;;;;;;;13.60;60.90;;;;;;5038746;28;88153;-45
2021/10/07 05:26:42;;;;;;;;;;;13.60;60.90;;;;;;5038460;28;87185;-44
2021/10/07 05:29:07;;;;;;;;;;;13.60;61.00;;;;;;5038242;28;89194;-45
2021/10/07 05:31:33;;;;;;;;;;;13.50;61.00;;;;;;5039682;28;89717;-45
2021/10/07 05:33:59;;;;;;;;;;;13.60;61.10;;;;;;5040522;28;87139;-44
2021/10/07 05:36:24;;;;;;;;;;;13.60;61.10;;;;;;5039334;28;87199;-44
2021/10/07 05:38:50;;;;;;;;;;;13.60;61.10;;;;;;5039228;28;88117;-45
2021/10/07 05:41:15;;;;;;;;;;;13.50;61.00;;;;;;5043508;28;87164;-44
2021/10/07 05:43:41;;;;;;;;;;;13.60;61.00;;;;;;5040938;28;88247;-45
2021/10/07 05:46:06;;;;;;;;;;;13.60;60.90;;;;;;5042430;28;86491;-46
2021/10/07 05:48:33;;;;;;;;;;;13.60;60.90;;;;;;5042380;28;88075;-45
2021/10/07 05:50:59;;;;;;;;;;;13.60;60.90;;;;;;5039220;28;89697;-44
2021/10/07 05:53:25;;;;;;;;;;;13.60;60.90;;;;;;5039878;28;88111;-45
2021/10/07 05:55:50;;;;;;;;;;;13.50;61.00;;;;;;5040368;28;89406;-45
2021/10/07 05:58:16;;;;;;;;;;;13.60;61.70;;;;;;5041006;28;88131;-44
2021/10/07 06:00:41;;;;;;;;;;;13.50;61.20;;;;;;5040391;28;88794;-44
2021/10/07 06:03:07;;;;;;;;;;;13.50;61.30;;;;;;5039586;28;89538;-44
2021/10/07 06:05:33;;;;;;;;;;;13.50;61.30;;;;;;5037477;28;87154;-44
2021/10/07 06:07:58;;;;;;;;;;;13.50;61.00;;;;;;5037473;28;87176;-45
2021/10/07 06:10:24;;;;;;;;;;;13.50;61.00;;;;;;5038720;28;87189;-44
2021/10/07 06:12:49;;;;;;;;;;;13.60;61.00;;;;;;5038302;27;87175;-44
2021/10/07 06:15:15;;;;;;;;;;;13.50;61.00;;;;;;5039140;28;87426;-45
2021/10/07 06:17:40;;;;;;;;;;;13.60;61.00;;;;;;5038415;28;88694;-44
2021/10/07 06:20:18;;;;;;;;;;;13.60;61.00;;;;;;5039282;28;87108;-45
2021/10/07 06:22:45;;;;;;;;;;;13.50;61.70;;;;;;5039779;28;89048;-46
2021/10/07 06:25:11;;;;;;;;;;;13.50;61.30;;;;;;5041216;28;87149;-45
2021/10/07 06:27:36;;;;;;;;;;;13.50;61.20;;;;;;5041246;28;88659;-45
2021/10/07 06:30:02;;;;;;;;;;;13.60;61.10;;;;;;5039382;28;88036;-44
2021/10/07 06:32:27;;;;;;;;;;;13.60;61.10;;;;;;5037560;28;87795;-44
2021/10/07 06:34:53;;;;;;;;;;;13.50;61.00;;;;;;5037535;28;87054;-44
2021/10/07 06:37:18;;;;;;;;;;;13.50;61.00;;;;;;5036921;28;87777;-45
2021/10/07 06:39:44;;;;;;;;;;;13.50;61.10;;;;;;5037232;28;87170;-44
2021/10/07 06:42:10;;;;;;;;;;;13.50;61.10;;;;;;5036983;28;88078;-45
2021/10/07 06:44:35;;;;;;;;;;;13.50;61.10;;;;;;5039712;28;87831;-45
2021/10/07 06:47:01;;;;;;;;;;;13.60;61.10;;;;;;5036276;28;87890;-44
2021/10/07 06:49:26;;;;;;;;;;;13.50;61.10;;;;;;5036773;28;88767;-45
2021/10/07 06:51:52;;;;;;;;;;;13.50;61.10;;;;;;5039245;28;88760;-44
2021/10/07 06:54:17;;;;;;;;;;;13.50;61.10;;;;;;5036499;28;87221;-44
2021/10/07 06:56:43;;;;;;;;;;;13.50;61.10;;;;;;5036856;28;88135;-44
2021/10/07 06:59:08;;;;;;;;;;;13.50;61.10;;;;;;5038107;28;86482;-44
2021/10/07 07:01:34;;;;;;;;;;;13.50;61.10;;;;;;5038410;28;87934;-45
2021/10/07 07:03:59;;;;;;;;;;;13.50;61.20;;;;;;5039425;28;88125;-45
2021/10/07 07:06:25;;;;;;;;;;;13.50;61.20;;;;;;5043353;28;88129;-45
2021/10/07 07:08:52;;;;;;;;;;;13.50;61.20;;;;;;5040276;28;89374;-45
2021/10/07 07:11:18;;;;;;;;;;;13.50;61.20;;;;;;5039430;28;87236;-45
2021/10/07 07:13:44;;;;;;;;;;;13.50;61.20;;;;;;5038967;28;88701;-44
2021/10/07 07:16:10;;;;;;;;;;;13.50;61.20;;;;;;5039258;28;88859;-45
2021/10/07 07:18:36;;;;;;;;;;;13.40;61.20;;;;;;5039926;28;87144;-44
2021/10/07 07:21:01;;;;;;;;;;;13.50;61.30;;;;;;5039313;28;87557;-44
2021/10/07 07:23:27;;;;;;;;;;;13.40;61.20;;;;;;5039930;28;86915;-45
2021/10/07 07:25:53;;;;;;;;;;;13.40;61.30;;;;;;5044443;28;87187;-44
2021/10/07 07:28:18;;;;;;;;;;;13.40;61.30;;;;;;5043756;28;88469;-45
2021/10/07 07:30:44;;;;;;;;;;;13.40;61.30;;;;;;5039107;28;88129;-44
2021/10/07 07:33:09;;;;;;;;;;;13.40;61.30;;;;;;5039808;28;89580;-44
2021/10/07 07:35:35;;;;;;;;;;;13.40;61.40;;;;;;5039095;28;90104;-44
2021/10/07 07:38:04;;;;;;;;;;;13.40;61.30;;;;;;5039689;28;87102;-44
2021/10/07 07:40:29;;;;;;;;;;;13.40;61.30;;;;;;5042914;28;87226;-45
2021/10/07 07:42:55;;;;;;;;;;;13.40;61.40;;;;;;5043179;28;88382;-45
2021/10/07 07:45:21;;;;;;;;;;;13.40;61.40;;;;;;5043656;28;87129;-45
2021/10/07 07:47:46;;;;;;;;;;;13.40;61.40;;;;;;5043484;28;87937;-44
2021/10/07 07:50:12;;;;;;;;;;;13.40;61.40;;;;;;5046370;28;89184;-45
2021/10/07 07:52:38;;;;;;;;;;;13.40;61.40;;;;;;5043963;28;87762;-47
2021/10/07 07:55:04;;;;;;;;;;;13.40;61.50;;;;;;5042059;28;89603;-44
2021/10/07 07:57:30;;;;;;;;;;;13.40;61.40;;;;;;5043627;28;87145;-46
2021/10/07 07:59:55;;;;;;;;;;;13.40;61.40;;;;;;5041821;28;88162;-45
2021/10/07 08:02:21;;;;;;;;;;;13.40;61.40;;;;;;5038840;28;88641;-44
2021/10/07 08:04:46;;;;;;;;;;;13.30;61.40;;;;;;5040448;28;87194;-45
2021/10/07 08:07:13;;;;;;;;;;;13.40;61.50;;;;;;5041329;28;87551;-44
2021/10/07 08:09:43;;;;;;;;;;;13.30;61.40;;;;;;5039576;28;90079;-44
2021/10/07 08:12:13;;;;;;;;;;;13.40;61.60;;;;;;5043841;28;86393;-44
2021/10/07 08:14:40;;;;;;;;;;;13.40;61.50;;;;;;5041325;28;90048;-45
2021/10/07 08:17:06;;;;;;;;;;;13.30;61.50;;;;;;5039108;28;88655;-45
2021/10/07 08:19:31;;;;;;;;;;;13.30;61.40;;;;;;5038235;28;88076;-44
2021/10/07 08:21:57;;;;;;;;;;;13.40;61.60;;;;;;5038996;28;87875;-45
2021/10/07 08:24:23;;;;;;;;;;;13.40;61.50;;;;;;5040075;28;87108;-45
2021/10/07 08:26:49;;;;;;;;;;;13.40;61.60;;;;;;5039105;28;87632;-45
2021/10/07 08:29:14;;;;;;;;;;;13.40;61.60;;;;;;5039045;28;88991;-44
2021/10/07 08:31:40;;;;;;;;;;;13.40;61.60;;;;;;5043622;28;87093;-44
2021/10/07 08:34:05;;;;;;;;;;;13.40;61.60;;;;;;5041614;28;88757;-45
2021/10/07 08:36:32;;;;;;;;;;;13.40;61.60;;;;;;5042853;27;86360;-45
2021/10/07 08:38:58;;;;;;;;;;;13.30;61.60;;;;;;5041257;28;87125;-45
2021/10/07 08:41:23;;;;;;;;;;;13.30;61.70;;;;;;5041240;28;87617;-45
2021/10/07 08:43:50;;;;;;;;;;;13.40;61.70;;;;;;5042633;28;88063;-45
2021/10/07 08:46:17;;;;;;;;;;;13.40;61.70;;;;;;5042827;28;87553;-47
2021/10/07 08:48:43;;;;;;;;;;;13.30;61.70;;;;;;5040551;28;87602;-45
2021/10/07 08:51:08;;;;;;;;;;;13.40;61.70;;;;;;5039828;28;87187;-44
2021/10/07 08:53:34;;;;;;;;;;;13.40;61.70;;;;;;5041659;28;88838;-44
2021/10/07 08:56:01;;;;;;;;;;;13.30;61.80;;;;;;5037996;28;87117;-45
2021/10/07 08:58:27;;;;;;;;;;;13.40;61.90;;;;;;5042128;28;88977;-45
2021/10/07 09:00:53;;;;;;;;;;;13.40;61.90;;;;;;5040626;28;86980;-44
2021/10/07 09:03:19;;;;;;;;;;;13.40;61.90;;;;;;5039687;28;87214;-45
2021/10/07 09:05:45;;;;;;;;;;;13.40;61.90;;;;;;5039705;28;87128;-44
2021/10/07 09:08:12;;;;;;;;;;;13.40;62.00;;;;;;5039666;28;88546;-44
2021/10/07 09:10:43;;;;;;;;;;;13.30;61.90;;;;;;5038744;28;87212;-45
2021/10/07 09:13:08;;;;;;;;;;;13.40;62.00;;;;;;5039223;28;87199;-44
2021/10/07 09:15:34;;;;;;;;;;;13.40;62.10;;;;;;5041415;28;89379;-44
2021/10/07 09:18:06;;;;;;;;;;;13.30;62.10;;;;;;5040146;28;87222;-44
2021/10/07 09:20:35;;;;;;;;;;;13.40;62.10;;;;;;5039341;28;88998;-44
2021/10/07 09:23:08;;;;;;;;;;;13.30;62.10;;;;;;5042373;28;87210;-45
2021/10/07 09:25:52;;;;;;;;;;;13.30;62.20;;;;;;5038199;28;89185;-44
2021/10/07 09:28:18;;;;;;;;;;;13.30;62.10;;;;;;5040967;27;88137;-44
2021/10/07 09:30:43;;;;;;;;;;;13.30;62.10;;;;;;5042391;28;88348;-44
2021/10/07 09:33:09;;;;;;;;;;;13.40;62.10;;;;;;5038772;28;88437;-44
2021/10/07 09:35:37;;;;;;;;;;;13.30;62.10;;;;;;5039763;28;88634;-46
2021/10/07 09:38:05;;;;;;;;;;;13.30;62.20;;;;;;5043078;28;87153;-44
2021/10/07 09:40:31;;;;;;;;;;;13.40;62.10;;;;;;5037486;28;87559;-45
2021/10/07 09:42:58;;;;;;;;;;;13.40;62.10;;;;;;5037837;28;87142;-44
2021/10/07 09:45:30;;;;;;;;;;;13.40;62.00;;;;;;5037758;28;87129;-44
2021/10/07 09:48:00;;;;;;;;;;;13.40;62.00;;;;;;5040669;28;88535;-45
2021/10/07 09:50:27;;;;;;;;;;;13.40;62.60;;;;;;5038693;28;87072;-44
2021/10/07 09:52:52;;;;;;;;;;;13.40;62.00;;;;;;5037942;28;88728;-44
2021/10/07 09:55:22;;;;;;;;;;;13.50;61.90;;;;;;5037621;28;88500;-44
2021/10/07 09:57:53;;;;;;;;;;;13.40;61.90;;;;;;5039775;28;88135;-46
2021/10/07 10:00:20;;;;;;;;;;;13.40;62.10;;;;;;5042824;28;89709;-44
2021/10/07 10:02:46;;;;;;;;;;;13.40;62.30;;;;;;5040398;28;87191;-45
2021/10/07 10:05:13;;;;;;;;;;;13.40;62.00;;;;;;5040453;28;89437;-45
2021/10/07 10:07:39;;;;;;;;;;;13.40;62.00;;;;;;5038249;28;90008;-44
2021/10/07 10:10:05;;;;;;;;;;;13.40;62.30;;;;;;5038522;28;87184;-44
2021/10/07 10:12:31;;;;;;;;;;;13.30;62.20;;;;;;5039070;28;88838;-48
2021/10/07 10:14:56;;;;;;;;;;;13.40;62.20;;;;;;5039309;28;88825;-44
2021/10/07 10:17:22;;;;;;;;;;;13.40;62.20;;;;;;5039174;28;87162;-44
2021/10/07 10:19:52;;;;;;;;;;;13.40;62.10;;;;;;5042358;28;87225;-44
2021/10/07 10:22:20;;;;;;;;;;;13.40;62.10;;;;;;5039410;28;88099;-45
2021/10/07 10:24:46;;;;;;;;;;;13.30;62.30;;;;;;5038841;28;88733;-44
2021/10/07 10:27:11;;;;;;;;;;;13.40;62.30;;;;;;5036147;28;91048;-44
2021/10/07 10:29:37;;;;;;;;;;;13.30;62.40;;;;;;5037758;28;87103;-44
2021/10/07 10:32:03;;;;;;;;;;;13.30;62.30;;;;;;5038200;28;87762;-44
2021/10/07 10:34:37;;;;;;;;;;;13.30;62.40;;;;;;5036229;28;89451;-44
2021/10/07 10:37:04;;;;;;;;;;;13.30;62.30;;;;;;5040974;28;87137;-46
2021/10/07 10:39:34;;;;;;;;;;;13.30;62.30;;;;;;5039943;28;88126;-44
2021/10/07 10:42:05;;;;;;;;;;;13.30;62.20;;;;;;5043066;28;89087;-46
2021/10/07 10:44:32;;;;;;;;;;;13.30;62.30;;;;;;5039458;28;89237;-46
2021/10/07 10:47:13;;;;;;;;;;;13.30;62.30;;;;;;5039564;28;89177;-45
2021/10/07 10:49:51;;;;;;;;;;;13.30;62.40;;;;;;5039940;28;87219;-45
2021/10/07 10:52:16;;;;;;;;;;;13.30;62.40;;;;;;5038040;28;89359;-44
2021/10/07 10:54:43;;;;;;;;;;;13.30;62.30;;;;;;5037681;28;88316;-44
2021/10/07 10:57:23;;;;;;;;;;;13.30;62.50;;;;;;5036259;28;87105;-44
2021/10/07 11:00:01;;;;;;;;;;;13.30;62.50;;;;;;5034893;28;87156;-45
2021/10/07 11:02:26;;;;;;;;;;;13.30;62.40;;;;;;5039290;28;88081;-45
2021/10/07 11:04:53;;;;;;;;;;;13.30;62.50;;;;;;5042387;28;86417;-45
2021/10/07 11:07:33;;;;;;;;;;;13.30;62.60;;;;;;5037830;28;88087;-44
2021/10/07 11:10:00;;;;;;;;;;;13.30;63.00;;;;;;5037530;28;87133;-44
2021/10/07 11:12:30;;;;;;;;;;;13.30;62.70;;;;;;5036915;28;89170;-45
2021/10/07 11:14:55;;;;;;;;;;;13.30;62.80;;;;;;5039331;28;88565;-46
2021/10/07 11:17:22;;;;;;;;;;;13.30;62.60;;;;;;5038180;28;87345;-45
2021/10/07 11:19:49;;;;;;;;;;;13.30;62.70;;;;;;5038683;28;87541;-44
2021/10/07 11:22:14;;;;;;;;;;;13.30;62.60;;;;;;5039057;28;89287;-44
2021/10/07 11:24:47;;;;;;;;;;;13.30;62.80;;;;;;5040804;28;87190;-45
2021/10/07 11:27:12;;;;;;;;;;;13.30;62.80;;;;;;5040898;28;87148;-45
2021/10/07 11:29:38;;;;;;;;;;;13.30;62.70;;;;;;5039946;28;86413;-45
2021/10/07 11:32:03;;;;;;;;;;;13.30;62.80;;;;;;5040173;28;87184;-46
2021/10/07 11:34:29;;;;;;;;;;;13.30;62.80;;;;;;5037614;28;88339;-45
2021/10/07 11:36:54;;;;;;;;;;;13.30;62.80;;;;;;5037989;28;88032;-45
2021/10/07 11:39:20;;;;;;;;;;;13.30;63.00;;;;;;5039043;28;88556;-45
2021/10/07 11:41:45;;;;;;;;;;;13.30;63.00;;;;;;5038064;28;87705;-45
2021/10/07 11:44:11;;;;;;;;;;;13.30;63.00;;;;;;5037995;28;87138;-44
2021/10/07 11:46:37;;;;;;;;;;;13.30;63.10;;;;;;5037241;28;88015;-44
2021/10/07 11:49:03;;;;;;;;;;;13.30;63.30;;;;;;5039958;28;88389;-44
2021/10/07 11:51:30;;;;;;;;;;;13.30;63.10;;;;;;5038066;28;87821;-45
2021/10/07 11:54:02;;;;;;;;;;;13.20;63.10;;;;;;5037409;28;87884;-44
2021/10/07 11:56:28;;;;;;;;;;;13.20;63.20;;;;;;5037590;28;88331;-45
2021/10/07 11:58:56;;;;;;;;;;;13.30;63.10;;;;;;5040020;28;87661;-45
2021/10/07 12:01:22;;;;;;;;;;;13.30;62.90;;;;;;5036092;28;90450;-44
2021/10/07 12:03:48;;;;;;;;;;;13.30;63.00;;;;;;5036066;28;87143;-45
2021/10/07 12:06:14;;;;;;;;;;;13.30;63.20;;;;;;5037173;28;87889;-45
2021/10/07 12:08:41;;;;;;;;;;;13.30;62.90;;;;;;5036748;28;87574;-44
2021/10/07 12:11:07;;;;;;;;;;;13.30;63.00;;;;;;5042781;28;87116;-45
2021/10/07 12:13:37;;;;;;;;;;;13.30;63.00;;;;;;5039171;28;89817;-44
2021/10/07 12:16:04;;;;;;;;;;;13.30;62.90;;;;;;5040204;28;87138;-44
2021/10/07 12:18:32;;;;;;;;;;;13.30;63.00;;;;;;5039145;28;88696;-44
2021/10/07 12:21:06;;;;;;;;;;;13.30;63.00;;;;;;5042697;28;89951;-46
2021/10/07 12:23:44;;;;;;;;;;;13.30;63.10;;;;;;5040649;28;87264;-45
2021/10/07 12:26:09;;;;;;;;;;;13.30;63.00;;;;;;5038624;28;89011;-44
2021/10/07 12:28:40;;;;;;;;;;;13.30;62.90;;;;;;5038567;28;87619;-44
2021/10/07 12:31:06;;;;;;;;;;;13.30;63.00;;;;;;5042498;28;87139;-44
2021/10/07 12:33:32;;;;;;;;;;;13.30;63.00;;;;;;5040031;28;87747;-45
2021/10/07 12:36:10;;;;;;;;;;;13.40;63.00;;;;;;5039141;28;87136;-44
2021/10/07 12:38:54;;;;;;;;;;;13.30;63.00;;;;;;5042859;28;88003;-44
2021/10/07 12:41:32;;;;;;;;;;;13.40;63.00;;;;;;5038865;28;89326;-44
2021/10/07 12:43:57;;;;;;;;;;;13.30;63.20;;;;;;5039296;28;87419;-44
2021/10/07 12:46:23;;;;;;;;;;;13.30;63.20;;;;;;5039111;28;87178;-46
2021/10/07 12:48:59;;;;;;;;;;;13.40;63.10;;;;;;5039015;28;89440;-44
2021/10/07 12:51:26;;;;;;;;;;;13.30;63.20;;;;;;5040010;28;88106;-45
2021/10/07 12:53:52;;;;;;;;;;;13.40;63.00;;;;;;5042111;28;88073;-44
2021/10/07 12:56:19;;;;;;;;;;;13.40;63.10;;;;;;5039545;28;87109;-45
2021/10/07 12:58:46;;;;;;;;;;;13.40;63.00;;;;;;5038156;28;89352;-45
2021/10/07 13:01:12;;;;;;;;;;;13.40;63.20;;;;;;5038449;28;88191;-45
2021/10/07 13:03:38;;;;;;;;;;;13.30;63.10;;;;;;5040642;28;87201;-45
2021/10/07 13:06:07;;;;;;;;;;;13.40;63.00;;;;;;5038187;28;88829;-44
2021/10/07 13:08:33;;;;;;;;;;;13.40;62.90;;;;;;5039290;28;88634;-45
2021/10/07 13:10:59;;;;;;;;;;;13.40;63.10;;;;;;5040228;28;87189;-45
2021/10/07 13:13:25;;;;;;;;;;;13.30;63.10;;;;;;5039966;28;89005;-44
2021/10/07 13:15:51;;;;;;;;;;;13.40;63.10;;;;;;5043088;28;90083;-46
2021/10/07 13:18:16;;;;;;;;;;;13.40;63.10;;;;;;5042292;28;88526;-46
2021/10/07 13:20:42;;;;;;;;;;;13.40;63.10;;;;;;5039433;28;88651;-44
2021/10/07 13:23:07;;;;;;;;;;;13.40;63.10;;;;;;5037294;28;87163;-44
2021/10/07 13:25:38;;;;;;;;;;;13.40;63.10;;;;;;5037523;28;88475;-44
2021/10/07 13:28:04;;;;;;;;;;;13.40;63.10;;;;;;5037393;28;88768;-44
2021/10/07 13:30:29;;;;;;;;;;;13.40;63.00;;;;;;5038377;28;87124;-45
2021/10/07 13:32:56;;;;;;;;;;;13.40;63.10;;;;;;5039570;28;89200;-44
2021/10/07 13:35:25;;;;;;;;;;;13.40;63.00;;;;;;5039461;28;87986;-44
2021/10/07 13:37:52;;;;;;;;;;;13.40;63.10;;;;;;5044111;28;87182;-44
2021/10/07 13:40:18;;;;;;;;;;;13.40;63.70;;;;;;5039299;28;89325;-45
2021/10/07 13:42:43;;;;;;;;;;;13.40;63.00;;;;;;5040682;28;87150;-44
2021/10/07 13:45:10;;;;;;;;;;;13.40;63.10;;;;;;5042269;28;87423;-47
2021/10/07 13:47:35;;;;;;;;;;;13.30;63.20;;;;;;5040655;28;89760;-44
2021/10/07 13:50:01;;;;;;;;;;;13.40;63.20;;;;;;5038065;28;87944;-44
2021/10/07 13:52:27;;;;;;;;;;;13.30;63.20;;;;;;5038186;28;87233;-44
2021/10/07 13:54:54;;;;;;;;;;;13.30;63.80;;;;;;5037676;28;89696;-45
2021/10/07 13:57:20;;;;;;;;;;;13.40;63.30;;;;;;5038143;28;87135;-44
2021/10/07 13:59:46;;;;;;;;;;;13.30;63.20;;;;;;5042980;28;88758;-44
2021/10/07 14:02:11;;;;;;;;;;;13.30;63.40;;;;;;5041658;28;87166;-45
2021/10/07 14:04:37;;;;;;;;;;;13.30;63.30;;;;;;5041250;28;88061;-48
2021/10/07 14:07:02;;;;;;;;;;;13.30;63.40;;;;;;5039807;28;88783;-46
2021/10/07 14:09:28;;;;;;;;;;;13.30;63.70;;;;;;5042046;28;87884;-45
2021/10/07 14:11:53;;;;;;;;;;;13.40;63.30;;;;;;5041533;28;87549;-45
2021/10/07 14:14:19;;;;;;;;;;;13.30;63.50;;;;;;5040049;28;89601;-45